sensor_id;sensor_type;location;lat;lon;timestamp;pressure;altitude;pressure_sealevel;temperature;humidity
17615;BME280;8926;49.720;6.576;2023-02-16T00:00:43;100821.88;;;2.87;79.01
17615;BME280;8926;49.720;6.576;2023-02-16T00:03:18;100819.31;;;2.87;79.32
17615;BME280;8926;49.720;6.576;2023-02-16T00:05:44;100819.41;;;2.78;79.52
17615;BME280;8926;49.720;6.576;2023-02-16T00:08:10;100821.97;;;2.78;79.59
17615;BME280;8926;49.720;6.576;2023-02-16T00:10:37;100821.97;;;2.81;78.61
17615;BME280;8926;49.720;6.576;2023-02-16T00:13:18;100830.53;;;2.86;79.03
17615;BME280;8926;49.720;6.576;2023-02-16T00:16:16;100833.06;;;2.87;78.37
17615;BME280;8926;49.720;6.576;2023-02-16T00:18:41;100832.25;;;2.84;78.64
17615;BME280;8926;49.720;6.576;2023-02-16T00:21:07;100832.25;;;2.84;78.89
17615;BME280;8926;49.720;6.576;2023-02-16T00:23:32;100833.97;;;2.85;79.37
17615;BME280;8926;49.720;6.576;2023-02-16T00:25:57;100832.28;;;2.81;79.20
17615;BME280;8926;49.720;6.576;2023-02-16T00:28:23;100830.56;;;2.81;78.90
17615;BME280;8926;49.720;6.576;2023-02-16T00:30:48;100823.69;;;2.79;78.88
17615;BME280;8926;49.720;6.576;2023-02-16T00:33:16;100823.69;;;2.79;78.74
17615;BME280;8926;49.720;6.576;2023-02-16T00:35:42;100823.69;;;2.79;78.28
17615;BME280;8926;49.720;6.576;2023-02-16T00:38:08;100822.00;;;2.75;78.34
17615;BME280;8926;49.720;6.576;2023-02-16T00:40:34;100819.41;;;2.75;78.07
17615;BME280;8926;49.720;6.576;2023-02-16T00:42:59;100826.34;;;2.69;78.53
17615;BME280;8926;49.720;6.576;2023-02-16T00:45:24;100817.78;;;2.61;78.73
17615;BME280;8926;49.720;6.576;2023-02-16T00:47:51;100813.53;;;2.57;78.84
17615;BME280;8926;49.720;6.576;2023-02-16T00:50:29;100813.53;;;2.57;78.08
17615;BME280;8926;49.720;6.576;2023-02-16T00:52:55;100818.69;;;2.57;78.39
17615;BME280;8926;49.720;6.576;2023-02-16T00:55:25;100809.19;;;2.61;78.01
17615;BME280;8926;49.720;6.576;2023-02-16T01:00:40;100799.81;;;2.52;78.69
17615;BME280;8926;49.720;6.576;2023-02-16T01:03:16;100801.53;;;2.53;78.86
17615;BME280;8926;49.720;6.576;2023-02-16T01:05:42;100803.25;;;2.54;78.64
17615;BME280;8926;49.720;6.576;2023-02-16T01:08:12;100804.97;;;2.55;78.47
17615;BME280;8926;49.720;6.576;2023-02-16T01:10:57;100805.84;;;2.50;78.06
17615;BME280;8926;49.720;6.576;2023-02-16T01:13:44;100815.31;;;2.46;77.89
17615;BME280;8926;49.720;6.576;2023-02-16T01:16:12;100808.44;;;2.45;78.56
17615;BME280;8926;49.720;6.576;2023-02-16T01:18:38;100815.31;;;2.46;78.13
17615;BME280;8926;49.720;6.576;2023-02-16T01:21:04;100815.34;;;2.43;78.60
17615;BME280;8926;49.720;6.576;2023-02-16T01:23:29;100817.06;;;2.41;78.79
17615;BME280;8926;49.720;6.576;2023-02-16T01:25:55;100821.34;;;2.45;77.81
17615;BME280;8926;49.720;6.576;2023-02-16T01:28:23;100819.63;;;2.43;77.83
17615;BME280;8926;49.720;6.576;2023-02-16T01:30:49;100817.09;;;2.38;78.10
17615;BME280;8926;49.720;6.576;2023-02-16T01:33:15;100817.16;;;2.32;78.45
17615;BME280;8926;49.720;6.576;2023-02-16T01:35:40;100814.59;;;2.27;78.80
17615;BME280;8926;49.720;6.576;2023-02-16T01:38:08;100817.19;;;2.26;78.63
17615;BME280;8926;49.720;6.576;2023-02-16T01:40:40;100809.41;;;2.30;79.02
17615;BME280;8926;49.720;6.576;2023-02-16T01:45:40;100798.25;;;2.27;78.36
17615;BME280;8926;49.720;6.576;2023-02-16T01:48:28;100800.03;;;2.19;78.89
17615;BME280;8926;49.720;6.576;2023-02-16T01:53:47;100793.16;;;2.18;78.49
17615;BME280;8926;49.720;6.576;2023-02-16T01:56:20;100791.44;;;2.17;78.74
17615;BME280;8926;49.720;6.576;2023-02-16T01:58:54;100792.28;;;2.19;77.44
17615;BME280;8926;49.720;6.576;2023-02-16T02:01:36;100786.31;;;2.14;78.01
17615;BME280;8926;49.720;6.576;2023-02-16T02:04:22;100791.53;;;2.04;78.86
17615;BME280;8926;49.720;6.576;2023-02-16T02:07:15;100792.38;;;2.03;78.79
17615;BME280;8926;49.720;6.576;2023-02-16T02:09:46;100786.41;;;1.98;79.08
17615;BME280;8926;49.720;6.576;2023-02-16T02:12:27;100788.13;;;1.96;79.07
17615;BME280;8926;49.720;6.576;2023-02-16T02:14:56;100785.53;;;1.96;78.71
17615;BME280;8926;49.720;6.576;2023-02-16T02:17:23;100789.84;;;1.94;79.13
17615;BME280;8926;49.720;6.576;2023-02-16T02:20:26;100788.13;;;1.93;79.04
17615;BME280;8926;49.720;6.576;2023-02-16T02:23:22;100783.84;;;1.94;79.35
17615;BME280;8926;49.720;6.576;2023-02-16T02:31:47;100777.81;;;1.93;79.42
17615;BME280;8926;49.720;6.576;2023-02-16T02:34:35;100770.97;;;1.89;80.26
17615;BME280;8926;49.720;6.576;2023-02-16T02:37:10;100774.41;;;1.88;80.58
17615;BME280;8926;49.720;6.576;2023-02-16T02:42:47;100771.84;;;1.85;79.88
17615;BME280;8926;49.720;6.576;2023-02-16T02:45:20;100774.41;;;1.85;79.96
17615;BME280;8926;49.720;6.576;2023-02-16T02:47:47;100774.41;;;1.87;79.80
17615;BME280;8926;49.720;6.576;2023-02-16T02:53:13;100772.69;;;1.87;79.80
17615;BME280;8926;49.720;6.576;2023-02-16T02:55:43;100767.56;;;1.84;80.18
17615;BME280;8926;49.720;6.576;2023-02-16T02:58:32;100769.28;;;1.85;79.95
17615;BME280;8926;49.720;6.576;2023-02-16T03:01:39;100767.59;;;1.78;79.79
17615;BME280;8926;49.720;6.576;2023-02-16T03:04:06;100773.63;;;1.71;79.65
17615;BME280;8926;49.720;6.576;2023-02-16T03:06:35;100769.38;;;1.64;79.84
17615;BME280;8926;49.720;6.576;2023-02-16T03:09:09;100766.00;;;1.56;80.02
17615;BME280;8926;49.720;6.576;2023-02-16T03:11:36;100766.84;;;1.53;79.84
17615;BME280;8926;49.720;6.576;2023-02-16T03:14:40;100764.31;;;1.46;80.05
17615;BME280;8926;49.720;6.576;2023-02-16T03:17:11;100771.16;;;1.50;79.77
17615;BME280;8926;49.720;6.576;2023-02-16T03:19:58;100763.44;;;1.51;79.87
17615;BME280;8926;49.720;6.576;2023-02-16T03:22:43;100766.00;;;1.51;80.28
17615;BME280;8926;49.720;6.576;2023-02-16T03:25:34;100763.44;;;1.48;79.73
17615;BME280;8926;49.720;6.576;2023-02-16T03:28:21;100763.44;;;1.42;80.11
17615;BME280;8926;49.720;6.576;2023-02-16T03:31:09;100760.88;;;1.44;80.31
17615;BME280;8926;49.720;6.576;2023-02-16T03:33:36;100761.72;;;1.43;79.98
17615;BME280;8926;49.720;6.576;2023-02-16T03:36:03;100754.84;;;1.45;80.07
17615;BME280;8926;49.720;6.576;2023-02-16T03:38:28;100752.28;;;1.48;80.31
17615;BME280;8926;49.720;6.576;2023-02-16T03:40:54;100753.13;;;1.47;79.98
17615;BME280;8926;49.720;6.576;2023-02-16T03:43:24;100750.56;;;1.47;79.41
17615;BME280;8926;49.720;6.576;2023-02-16T03:45:49;100748.00;;;1.48;79.63
17615;BME280;8926;49.720;6.576;2023-02-16T03:48:15;100743.72;;;1.43;79.95
17615;BME280;8926;49.720;6.576;2023-02-16T03:50:40;100747.16;;;1.39;80.54
17615;BME280;8926;49.720;6.576;2023-02-16T03:53:05;100752.31;;;1.32;80.83
17615;BME280;8926;49.720;6.576;2023-02-16T03:55:41;100754.03;;;1.30;80.86
17615;BME280;8926;49.720;6.576;2023-02-16T03:58:09;100755.75;;;1.31;81.04
17615;BME280;8926;49.720;6.576;2023-02-16T04:00:35;100761.75;;;1.32;80.66
17615;BME280;8926;49.720;6.576;2023-02-16T04:03:02;100759.16;;;1.36;80.45
17615;BME280;8926;49.720;6.576;2023-02-16T04:05:28;100760.03;;;1.39;80.03
17615;BME280;8926;49.720;6.576;2023-02-16T04:07:56;100756.59;;;1.41;79.01
17615;BME280;8926;49.720;6.576;2023-02-16T04:10:21;100760.88;;;1.38;78.95
17615;BME280;8926;49.720;6.576;2023-02-16T04:12:46;100760.03;;;1.37;79.02
17615;BME280;8926;49.720;6.576;2023-02-16T04:15:18;100763.47;;;1.33;79.27
17615;BME280;8926;49.720;6.576;2023-02-16T04:17:44;100755.75;;;1.33;79.47
17615;BME280;8926;49.720;6.576;2023-02-16T04:20:12;100764.31;;;1.36;79.17
17615;BME280;8926;49.720;6.576;2023-02-16T04:22:38;100761.75;;;1.33;79.66
17615;BME280;8926;49.720;6.576;2023-02-16T04:25:04;100762.66;;;1.29;80.23
17615;BME280;8926;49.720;6.576;2023-02-16T04:27:29;100765.19;;;1.31;79.93
17615;BME280;8926;49.720;6.576;2023-02-16T04:29:54;100760.88;;;1.34;79.88
17615;BME280;8926;49.720;6.576;2023-02-16T04:32:20;100760.94;;;1.28;80.06
17615;BME280;8926;49.720;6.576;2023-02-16T04:34:45;100763.50;;;1.25;79.96
17615;BME280;8926;49.720;6.576;2023-02-16T04:37:10;100761.78;;;1.21;80.00
17615;BME280;8926;49.720;6.576;2023-02-16T04:39:36;100762.66;;;1.20;79.80
17615;BME280;8926;49.720;6.576;2023-02-16T04:42:02;100764.38;;;1.21;79.62
17615;BME280;8926;49.720;6.576;2023-02-16T04:44:28;100774.66;;;1.18;79.97
17615;BME280;8926;49.720;6.576;2023-02-16T04:46:53;100773.81;;;1.16;79.86
17615;BME280;8926;49.720;6.576;2023-02-16T04:49:18;100773.81;;;1.16;80.10
17615;BME280;8926;49.720;6.576;2023-02-16T04:51:44;100769.53;;;1.20;79.48
17615;BME280;8926;49.720;6.576;2023-02-16T04:54:09;100768.66;;;1.16;79.82
17615;BME280;8926;49.720;6.576;2023-02-16T04:56:34;100770.38;;;1.14;79.59
17615;BME280;8926;49.720;6.576;2023-02-16T04:59:00;100772.97;;;1.08;80.02
17615;BME280;8926;49.720;6.576;2023-02-16T05:01:26;100766.09;;;1.07;79.47
17615;BME280;8926;49.720;6.576;2023-02-16T05:03:52;100772.97;;;1.08;78.84
17615;BME280;8926;49.720;6.576;2023-02-16T05:06:18;100767.81;;;1.05;78.86
17615;BME280;8926;49.720;6.576;2023-02-16T05:08:44;100768.66;;;1.04;79.30
17615;BME280;8926;49.720;6.576;2023-02-16T05:11:09;100766.09;;;1.04;79.60
17615;BME280;8926;49.720;6.576;2023-02-16T05:13:58;100773.81;;;1.07;79.53
17615;BME280;8926;49.720;6.576;2023-02-16T05:16:42;100783.25;;;1.11;79.92
17615;BME280;8926;49.720;6.576;2023-02-16T05:19:07;100784.97;;;1.12;79.71
17615;BME280;8926;49.720;6.576;2023-02-16T05:21:33;100774.66;;;1.09;80.29
17615;BME280;8926;49.720;6.576;2023-02-16T05:24:02;100776.38;;;1.07;80.22
17615;BME280;8926;49.720;6.576;2023-02-16T05:26:27;100778.97;;;1.09;79.65
17615;BME280;8926;49.720;6.576;2023-02-16T05:28:53;100774.66;;;1.09;80.23
17615;BME280;8926;49.720;6.576;2023-02-16T05:31:19;100775.53;;;1.07;79.37
17615;BME280;8926;49.720;6.576;2023-02-16T05:33:44;100773.00;;;1.02;79.57
17615;BME280;8926;49.720;6.576;2023-02-16T05:36:10;100769.56;;;0.97;80.29
17615;BME280;8926;49.720;6.576;2023-02-16T05:38:35;100770.41;;;0.99;80.29
17615;BME280;8926;49.720;6.576;2023-02-16T05:41:00;100774.72;;;0.88;80.19
17615;BME280;8926;49.720;6.576;2023-02-16T05:43:26;100785.84;;;0.90;80.61
17615;BME280;8926;49.720;6.576;2023-02-16T05:45:51;100777.28;;;0.91;80.16
17615;BME280;8926;49.720;6.576;2023-02-16T05:48:16;100781.56;;;0.95;80.05
17615;BME280;8926;49.720;6.576;2023-02-16T05:50:42;100782.44;;;0.98;79.95
17615;BME280;8926;49.720;6.576;2023-02-16T05:53:07;100776.44;;;0.98;79.61
17615;BME280;8926;49.720;6.576;2023-02-16T05:55:32;100787.56;;;1.00;79.34
17615;BME280;8926;49.720;6.576;2023-02-16T05:57:58;100793.56;;;0.96;79.02
17615;BME280;8926;49.720;6.576;2023-02-16T06:00:23;100795.28;;;0.94;79.29
17615;BME280;8926;49.720;6.576;2023-02-16T06:02:48;100797.00;;;0.92;78.94
17615;BME280;8926;49.720;6.576;2023-02-16T06:05:15;100790.13;;;0.92;78.87
17615;BME280;8926;49.720;6.576;2023-02-16T06:07:40;100798.72;;;0.93;78.83
17615;BME280;8926;49.720;6.576;2023-02-16T06:10:06;100794.44;;;0.90;78.65
17615;BME280;8926;49.720;6.576;2023-02-16T06:12:31;100798.72;;;0.93;78.95
17615;BME280;8926;49.720;6.576;2023-02-16T06:14:59;100802.16;;;0.92;79.18
17615;BME280;8926;49.720;6.576;2023-02-16T06:17:24;100801.28;;;0.91;78.54
17615;BME280;8926;49.720;6.576;2023-02-16T06:19:49;100809.84;;;0.87;79.15
17615;BME280;8926;49.720;6.576;2023-02-16T06:22:15;100808.13;;;0.83;79.61
17615;BME280;8926;49.720;6.576;2023-02-16T06:24:40;100803.00;;;0.91;79.88
17615;BME280;8926;49.720;6.576;2023-02-16T06:27:05;100816.72;;;0.99;80.95
17615;BME280;8926;49.720;6.576;2023-02-16T06:29:31;100815.88;;;1.03;80.38
17615;BME280;8926;49.720;6.576;2023-02-16T06:31:56;100805.59;;;1.03;79.47
17615;BME280;8926;49.720;6.576;2023-02-16T06:34:22;100801.28;;;0.97;80.34
17615;BME280;8926;49.720;6.576;2023-02-16T06:36:47;100809.00;;;0.99;79.81
17615;BME280;8926;49.720;6.576;2023-02-16T06:39:13;100800.44;;;0.97;80.31
17615;BME280;8926;49.720;6.576;2023-02-16T06:41:38;100797.00;;;0.98;80.42
17615;BME280;8926;49.720;6.576;2023-02-16T06:44:12;100798.72;;;1.02;80.35
17615;BME280;8926;49.720;6.576;2023-02-16T06:46:39;100795.25;;;1.09;80.95
17615;BME280;8926;49.720;6.576;2023-02-16T06:49:05;100801.25;;;1.08;79.87
17615;BME280;8926;49.720;6.576;2023-02-16T06:51:30;100801.25;;;1.07;79.63
17615;BME280;8926;49.720;6.576;2023-02-16T06:53:56;100798.69;;;1.08;79.53
17615;BME280;8926;49.720;6.576;2023-02-16T06:56:22;100802.13;;;1.13;79.95
17615;BME280;8926;49.720;6.576;2023-02-16T06:58:48;100799.53;;;1.16;79.02
17615;BME280;8926;49.720;6.576;2023-02-16T07:01:13;100802.13;;;1.22;78.93
17615;BME280;8926;49.720;6.576;2023-02-16T07:03:38;100800.41;;;1.27;79.12
17615;BME280;8926;49.720;6.576;2023-02-16T07:06:04;100796.06;;;1.32;78.37
17615;BME280;8926;49.720;6.576;2023-02-16T07:08:29;100805.50;;;1.33;78.48
17615;BME280;8926;49.720;6.576;2023-02-16T07:10:55;100796.97;;;1.25;77.36
17615;BME280;8926;49.720;6.576;2023-02-16T07:13:20;100798.69;;;1.20;78.41
17615;BME280;8926;49.720;6.576;2023-02-16T07:15:46;100805.53;;;1.18;78.49
17615;BME280;8926;49.720;6.576;2023-02-16T07:18:11;100807.25;;;1.22;78.59
17615;BME280;8926;49.720;6.576;2023-02-16T07:20:36;100803.81;;;1.26;78.46
17615;BME280;8926;49.720;6.576;2023-02-16T07:23:02;100812.38;;;1.31;78.71
17615;BME280;8926;49.720;6.576;2023-02-16T07:25:27;100805.50;;;1.33;78.02
17615;BME280;8926;49.720;6.576;2023-02-16T07:27:53;100803.78;;;1.48;77.66
17615;BME280;8926;49.720;6.576;2023-02-16T07:30:21;100808.91;;;1.54;77.74
17615;BME280;8926;49.720;6.576;2023-02-16T07:32:46;100802.00;;;1.59;77.28
17615;BME280;8926;49.720;6.576;2023-02-16T07:35:12;100811.44;;;1.66;76.90
17615;BME280;8926;49.720;6.576;2023-02-16T07:37:38;100802.81;;;1.75;76.62
17615;BME280;8926;49.720;6.576;2023-02-16T07:40:04;100812.19;;;1.86;76.97
17615;BME280;8926;49.720;6.576;2023-02-16T07:42:30;100805.28;;;1.97;76.19
17615;BME280;8926;49.720;6.576;2023-02-16T07:44:56;100805.19;;;2.13;76.11
17615;BME280;8926;49.720;6.576;2023-02-16T07:47:22;100813.75;;;2.25;75.80
17615;BME280;8926;49.720;6.576;2023-02-16T07:49:47;100819.72;;;2.33;76.27
17615;BME280;8926;49.720;6.576;2023-02-16T07:52:12;100815.31;;;2.46;76.34
17615;BME280;8926;49.720;6.576;2023-02-16T07:54:38;100815.28;;;2.55;76.22
17615;BME280;8926;49.720;6.576;2023-02-16T07:57:03;100813.38;;;2.79;76.53
17615;BME280;8926;49.720;6.576;2023-02-16T07:59:29;100820.22;;;2.86;75.54
17615;BME280;8926;49.720;6.576;2023-02-16T08:01:55;100815.81;;;2.95;75.40
17615;BME280;8926;49.720;6.576;2023-02-16T08:04:20;100814.94;;;2.95;75.95
17615;BME280;8926;49.720;6.576;2023-02-16T08:06:46;100819.19;;;3.03;76.62
17615;BME280;8926;49.720;6.576;2023-02-16T08:09:13;100823.34;;;3.18;76.74
17615;BME280;8926;49.720;6.576;2023-02-16T08:11:38;100819.66;;;3.40;76.27
17615;BME280;8926;49.720;6.576;2023-02-16T08:14:04;100809.22;;;4.78;73.36
17615;BME280;8926;49.720;6.576;2023-02-16T08:16:29;100790.00;;;6.64;68.35
17615;BME280;8926;49.720;6.576;2023-02-16T08:18:56;100785.34;;;8.05;63.55
17615;BME280;8926;49.720;6.576;2023-02-16T08:21:24;100784.78;;;7.94;64.31
17615;BME280;8926;49.720;6.576;2023-02-16T08:23:58;100789.75;;;6.75;68.58
17615;BME280;8926;49.720;6.576;2023-02-16T08:26:27;100796.81;;;6.31;70.26
17615;BME280;8926;49.720;6.576;2023-02-16T08:28:53;100790.81;;;5.89;69.88
17615;BME280;8926;49.720;6.576;2023-02-16T08:31:22;100791.69;;;5.45;70.44
17615;BME280;8926;49.720;6.576;2023-02-16T08:33:50;100789.56;;;5.19;70.90
17615;BME280;8926;49.720;6.576;2023-02-16T08:36:17;100789.88;;;5.01;71.36
17615;BME280;8926;49.720;6.576;2023-02-16T08:38:42;100776.94;;;4.99;72.07
17615;BME280;8926;49.720;6.576;2023-02-16T08:41:08;100776.97;;;4.98;73.38
17615;BME280;8926;49.720;6.576;2023-02-16T08:43:33;100789.91;;;4.98;73.29
17615;BME280;8926;49.720;6.576;2023-02-16T08:45:58;100784.75;;;4.98;74.76
17615;BME280;8926;49.720;6.576;2023-02-16T08:48:24;100785.41;;;5.10;73.67
17615;BME280;8926;49.720;6.576;2023-02-16T08:50:49;100779.91;;;5.27;74.01
17615;BME280;8926;49.720;6.576;2023-02-16T08:53:22;100775.50;;;6.90;69.80
17615;BME280;8926;49.720;6.576;2023-02-16T08:55:54;100783.09;;;6.63;69.83
17615;BME280;8926;49.720;6.576;2023-02-16T08:58:19;100781.59;;;6.53;69.95
17615;BME280;8926;49.720;6.576;2023-02-16T09:00:45;100770.59;;;6.43;70.55
17615;BME280;8926;49.720;6.576;2023-02-16T09:03:11;100766.53;;;6.32;71.28
17615;BME280;8926;49.720;6.576;2023-02-16T09:05:37;100773.88;;;6.50;71.05
17615;BME280;8926;49.720;6.576;2023-02-16T09:08:03;100781.16;;;6.71;70.06
17615;BME280;8926;49.720;6.576;2023-02-16T09:10:28;100776.84;;;6.35;70.94
17615;BME280;8926;49.720;6.576;2023-02-16T09:12:54;100783.38;;;6.14;72.27
17615;BME280;8926;49.720;6.576;2023-02-16T09:15:19;100788.16;;;5.92;72.50
17615;BME280;8926;49.720;6.576;2023-02-16T09:17:44;100777.94;;;5.83;73.34
17615;BME280;8926;49.720;6.576;2023-02-16T09:20:11;100785.16;;;5.69;73.82
17615;BME280;8926;49.720;6.576;2023-02-16T09:22:36;100785.34;;;5.60;73.66
17615;BME280;8926;49.720;6.576;2023-02-16T09:25:02;100791.38;;;5.60;73.57
17615;BME280;8926;49.720;6.576;2023-02-16T09:27:27;100787.25;;;5.49;74.75
17615;BME280;8926;49.720;6.576;2023-02-16T09:29:53;100787.22;;;5.50;75.33
17615;BME280;8926;49.720;6.576;2023-02-16T09:32:18;100794.94;;;5.53;75.16
17615;BME280;8926;49.720;6.576;2023-02-16T09:34:43;100787.22;;;5.52;74.93
17615;BME280;8926;49.720;6.576;2023-02-16T09:37:09;100790.69;;;5.51;75.02
17615;BME280;8926;49.720;6.576;2023-02-16T09:39:35;100792.38;;;5.52;75.21
17615;BME280;8926;49.720;6.576;2023-02-16T09:42:10;100799.41;;;5.46;75.49
17615;BME280;8926;49.720;6.576;2023-02-16T09:45:05;100785.44;;;5.54;75.08
17615;BME280;8926;49.720;6.576;2023-02-16T09:47:36;100800.63;;;5.72;74.88
17615;BME280;8926;49.720;6.576;2023-02-16T09:50:11;100796.63;;;6.00;74.63
17615;BME280;8926;49.720;6.576;2023-02-16T09:53:01;100791.75;;;6.62;73.86
17615;BME280;8926;49.720;6.576;2023-02-16T09:55:47;100793.06;;;7.46;71.50
17615;BME280;8926;49.720;6.576;2023-02-16T09:58:21;100792.63;;;7.93;70.07
17615;BME280;8926;49.720;6.576;2023-02-16T10:00:51;100776.31;;;8.45;68.19
17615;BME280;8926;49.720;6.576;2023-02-16T10:06:28;100765.22;;;9.89;64.67
17615;BME280;8926;49.720;6.576;2023-02-16T10:09:06;100756.66;;;10.09;64.14
17615;BME280;8926;49.720;6.576;2023-02-16T10:11:49;100763.59;;;9.86;63.82
17615;BME280;8926;49.720;6.576;2023-02-16T10:14:40;100747.28;;;10.27;63.76
17615;BME280;8926;49.720;6.576;2023-02-16T10:17:33;100748.22;;;10.68;63.52
17615;BME280;8926;49.720;6.576;2023-02-16T10:20:20;100742.00;;;10.70;62.34
17615;BME280;8926;49.720;6.576;2023-02-16T10:22:54;100743.41;;;10.37;63.62
17615;BME280;8926;49.720;6.576;2023-02-16T10:25:34;100742.38;;;10.17;63.68
17615;BME280;8926;49.720;6.576;2023-02-16T10:31:12;100744.19;;;10.15;63.40
17615;BME280;8926;49.720;6.576;2023-02-16T10:33:45;100745.81;;;10.41;62.87
17615;BME280;8926;49.720;6.576;2023-02-16T10:36:47;100764.81;;;10.45;62.50
17615;BME280;8926;49.720;6.576;2023-02-16T10:44:39;100766.34;;;10.50;62.73
17615;BME280;8926;49.720;6.576;2023-02-16T10:47:26;100759.78;;;10.40;62.82
17615;BME280;8926;49.720;6.576;2023-02-16T10:49:54;100745.34;;;10.32;62.64
17615;BME280;8926;49.720;6.576;2023-02-16T10:52:20;100755.91;;;10.29;62.85
17615;BME280;8926;49.720;6.576;2023-02-16T10:54:46;100755.66;;;10.35;63.40
17615;BME280;8926;49.720;6.576;2023-02-16T10:57:22;100755.91;;;10.50;63.05
17615;BME280;8926;49.720;6.576;2023-02-16T10:59:49;100765.50;;;10.50;62.47
17615;BME280;8926;49.720;6.576;2023-02-16T11:04:44;100754.63;;;10.61;62.17
17615;BME280;8926;49.720;6.576;2023-02-16T11:07:50;100765.13;;;10.59;62.05
17615;BME280;8926;49.720;6.576;2023-02-16T11:10:19;100756.69;;;10.52;61.75
17615;BME280;8926;49.720;6.576;2023-02-16T11:12:53;100755.16;;;10.47;61.66
17615;BME280;8926;49.720;6.576;2023-02-16T11:15:24;100746.66;;;10.42;61.76
17615;BME280;8926;49.720;6.576;2023-02-16T11:17:56;100741.59;;;10.39;61.62
17615;BME280;8926;49.720;6.576;2023-02-16T11:25:39;100731.72;;;10.24;62.73
17615;BME280;8926;49.720;6.576;2023-02-16T11:28:05;100726.63;;;10.20;62.77
17615;BME280;8926;49.720;6.576;2023-02-16T11:30:39;100730.03;;;10.23;62.98
17615;BME280;8926;49.720;6.576;2023-02-16T11:33:25;100724.56;;;10.29;63.21
17615;BME280;8926;49.720;6.576;2023-02-16T11:35:52;100721.84;;;10.32;63.72
17615;BME280;8926;49.720;6.576;2023-02-16T11:38:29;100722.63;;;10.34;63.38
17615;BME280;8926;49.720;6.576;2023-02-16T11:40:57;100712.28;;;10.31;64.06
17615;BME280;8926;49.720;6.576;2023-02-16T11:43:26;100717.41;;;10.34;63.95
17615;BME280;8926;49.720;6.576;2023-02-16T11:45:59;100712.06;;;10.37;63.58
17615;BME280;8926;49.720;6.576;2023-02-16T11:48:28;100707.53;;;10.40;63.77
17615;BME280;8926;49.720;6.576;2023-02-16T11:51:00;100697.81;;;10.44;63.81
17615;BME280;8926;49.720;6.576;2023-02-16T11:53:29;100690.66;;;10.49;64.20
17615;BME280;8926;49.720;6.576;2023-02-16T11:56:25;100680.13;;;10.50;63.70
17615;BME280;8926;49.720;6.576;2023-02-16T12:07:10;100678.50;;;10.68;63.03
17615;BME280;8926;49.720;6.576;2023-02-16T12:18:00;100667.53;;;10.60;63.88
17615;BME280;8926;49.720;6.576;2023-02-16T12:23:33;100664.28;;;10.55;64.49
17615;BME280;8926;49.720;6.576;2023-02-16T12:26:13;100662.56;;;10.54;64.59
17615;BME280;8926;49.720;6.576;2023-02-16T12:34:49;100662.31;;;10.60;64.73
17615;BME280;8926;49.720;6.576;2023-02-16T12:43:24;100654.97;;;10.68;64.81
17615;BME280;8926;49.720;6.576;2023-02-16T12:45:57;100649.91;;;10.65;65.01
17615;BME280;8926;49.720;6.576;2023-02-16T12:48:44;100661.19;;;10.66;65.11
17615;BME280;8926;49.720;6.576;2023-02-16T12:51:17;100655.97;;;10.66;65.33
17615;BME280;8926;49.720;6.576;2023-02-16T12:53:49;100653.56;;;10.61;65.59
17615;BME280;8926;49.720;6.576;2023-02-16T12:56:44;100653.69;;;10.58;65.78
17615;BME280;8926;49.720;6.576;2023-02-16T12:59:20;100645.84;;;10.58;66.52
17615;BME280;8926;49.720;6.576;2023-02-16T13:01:49;100639.13;;;10.52;67.03
17615;BME280;8926;49.720;6.576;2023-02-16T13:04:25;100641.00;;;10.49;66.84
17615;BME280;8926;49.720;6.576;2023-02-16T13:06:57;100644.34;;;10.52;66.70
17615;BME280;8926;49.720;6.576;2023-02-16T13:12:38;100638.66;;;10.43;67.60
17615;BME280;8926;49.720;6.576;2023-02-16T13:15:12;100635.41;;;10.38;68.31
17615;BME280;8926;49.720;6.576;2023-02-16T13:18:01;100630.31;;;10.35;68.29
17615;BME280;8926;49.720;6.576;2023-02-16T13:20:28;100632.25;;;10.30;68.70
17615;BME280;8926;49.720;6.576;2023-02-16T13:29:00;100639.41;;;10.25;69.52
17615;BME280;8926;49.720;6.576;2023-02-16T13:34:51;100636.13;;;10.19;69.93
17615;BME280;8926;49.720;6.576;2023-02-16T13:40:11;100622.16;;;10.20;69.45
17615;BME280;8926;49.720;6.576;2023-02-16T13:45:33;100617.78;;;10.21;70.38
17615;BME280;8926;49.720;6.576;2023-02-16T13:48:01;100616.81;;;10.24;70.19
17615;BME280;8926;49.720;6.576;2023-02-16T13:50:30;100620.22;;;10.26;69.92
17615;BME280;8926;49.720;6.576;2023-02-16T13:53:09;100614.88;;;10.29;70.02
17615;BME280;8926;49.720;6.576;2023-02-16T13:55:38;100616.69;;;10.27;70.38
17615;BME280;8926;49.720;6.576;2023-02-16T13:58:25;100616.81;;;10.24;70.44
17615;BME280;8926;49.720;6.576;2023-02-16T14:00:50;100615.97;;;10.23;70.97
17615;BME280;8926;49.720;6.576;2023-02-16T14:05:48;100604.69;;;10.23;70.33
17615;BME280;8926;49.720;6.576;2023-02-16T14:16:22;100608.41;;;10.15;71.32
17615;BME280;8926;49.720;6.576;2023-02-16T14:23:56;100606.88;;;10.11;70.60
17615;BME280;8926;49.720;6.576;2023-02-16T14:26:22;100599.94;;;10.10;70.89
17615;BME280;8926;49.720;6.576;2023-02-16T14:29:00;100598.38;;;10.06;71.13
17615;BME280;8926;49.720;6.576;2023-02-16T14:31:27;100600.91;;;10.08;70.91
17615;BME280;8926;49.720;6.576;2023-02-16T14:34:02;100598.50;;;10.03;71.56
17615;BME280;8926;49.720;6.576;2023-02-16T14:36:30;100596.78;;;10.02;72.23
17615;BME280;8926;49.720;6.576;2023-02-16T14:38:57;100593.28;;;10.03;72.53
17615;BME280;8926;49.720;6.576;2023-02-16T14:41:29;100590.59;;;10.05;72.52
17615;BME280;8926;49.720;6.576;2023-02-16T14:49:30;100588.91;;;10.04;73.23
17615;BME280;8926;49.720;6.576;2023-02-16T14:55:18;100587.31;;;10.00;74.42
17615;BME280;8926;49.720;6.576;2023-02-16T15:01:02;100579.56;;;9.98;74.01
17615;BME280;8926;49.720;6.576;2023-02-16T15:03:48;100588.16;;;10.00;74.04
17615;BME280;8926;49.720;6.576;2023-02-16T15:06:21;100584.66;;;10.01;74.88
17615;BME280;8926;49.720;6.576;2023-02-16T15:08:58;100578.53;;;10.02;74.48
17615;BME280;8926;49.720;6.576;2023-02-16T15:11:29;100582.84;;;10.03;74.40
17615;BME280;8926;49.720;6.576;2023-02-16T15:14:01;100582.72;;;10.06;74.49
17615;BME280;8926;49.720;6.576;2023-02-16T15:16:27;100571.41;;;10.06;73.97
17615;BME280;8926;49.720;6.576;2023-02-16T15:18:55;100574.81;;;10.08;73.96
17615;BME280;8926;49.720;6.576;2023-02-16T15:21:24;100570.31;;;10.11;73.63